createdAt,value
2023-03-08T00:01:43.609Z,15372.06
2023-03-08T00:05:45.153Z,15384.31
2023-03-08T00:09:47.010Z,15374.09
2023-03-08T00:13:50.464Z,15376.16
2023-03-08T00:17:52.055Z,15367.97
2023-03-08T00:21:53.705Z,15392.50
2023-03-08T00:25:55.662Z,15363.88
2023-03-08T00:29:58.886Z,15343.44
2023-03-08T00:34:00.473Z,15392.50
2023-03-08T00:38:02.160Z,15388.41
2023-03-08T00:42:03.881Z,15404.78
2023-03-08T00:46:07.188Z,15394.56
2023-03-08T00:50:10.176Z,15380.25
2023-03-08T00:54:12.018Z,15376.16
2023-03-08T00:58:13.751Z,15372.06
2023-03-08T01:02:16.907Z,15388.41
2023-03-08T01:06:19.045Z,15357.75
2023-03-08T01:10:20.634Z,15376.16
2023-03-08T01:14:22.205Z,15365.94
2023-03-08T01:18:25.769Z,15384.31
2023-03-08T01:22:27.356Z,15392.50
2023-03-08T01:26:29.088Z,15404.78
2023-03-08T01:30:30.985Z,15372.06
2023-03-08T01:34:34.297Z,15394.56
2023-03-08T01:38:49.072Z,15376.16
2023-03-08T01:42:50.861Z,15367.97
2023-03-08T01:46:53.892Z,15367.97
2023-03-08T01:50:58.062Z,15388.41
2023-03-08T01:55:03.914Z,15374.09
2023-03-08T01:59:06.361Z,15372.06
2023-03-08T02:03:11.780Z,15392.50
2023-03-08T02:07:15.163Z,15343.44
2023-03-08T02:11:18.884Z,15384.31
2023-03-08T02:15:21.754Z,15392.50
2023-03-08T02:19:29.651Z,15404.78
2023-03-08T02:23:32.970Z,15388.41
2023-03-08T02:27:34.972Z,15400.69
2023-03-08T02:31:36.626Z,15382.28
2023-03-08T02:35:38.545Z,15367.97
2023-03-08T02:39:41.707Z,15345.47
2023-03-08T02:43:43.488Z,15404.78
2023-03-08T02:47:45.230Z,15376.16
2023-03-08T02:51:47.049Z,15382.28
2023-03-08T02:55:50.263Z,15382.28
2023-03-08T02:59:51.827Z,15380.25
2023-03-08T03:03:54.543Z,15384.31
2023-03-08T03:07:56.248Z,15339.34
2023-03-08T03:11:59.292Z,15382.28
2023-03-08T03:16:06.326Z,15363.88
2023-03-08T03:20:11.308Z,15421.13
2023-03-08T03:24:13.738Z,15353.66
2023-03-08T03:28:16.873Z,15318.91
2023-03-08T03:32:18.658Z,15386.38
2023-03-08T03:36:22.048Z,15388.41
2023-03-08T03:40:23.707Z,15370.03
2023-03-08T03:44:29.095Z,15388.41
2023-03-08T03:48:31.346Z,15382.28
2023-03-08T03:52:33.144Z,15363.88
2023-03-08T03:56:34.717Z,15365.94
2023-03-08T04:00:37.804Z,15349.56
2023-03-08T04:04:39.441Z,15390.47
2023-03-08T04:08:41.571Z,15357.75
2023-03-08T04:12:43.199Z,15380.25
2023-03-08T04:16:46.196Z,15388.41
2023-03-08T04:20:47.807Z,15382.28
2023-03-08T04:24:49.378Z,15372.06
2023-03-08T04:28:51.122Z,15343.44
2023-03-08T04:32:54.295Z,15388.41
2023-03-08T04:36:55.858Z,15400.69
2023-03-08T04:40:57.394Z,15384.31
2023-03-08T04:44:58.980Z,15380.25
2023-03-08T04:49:01.785Z,15415.00
2023-03-08T04:53:03.193Z,15384.31
2023-03-08T04:57:04.831Z,15382.28
2023-03-08T05:01:10.612Z,15396.59
2023-03-08T05:05:13.550Z,15421.13
2023-03-08T05:09:17.078Z,15408.84
2023-03-08T05:13:18.482Z,15388.41
2023-03-08T05:17:20.223Z,15398.63
2023-03-08T05:21:23.641Z,15380.25
2023-03-08T05:25:25.077Z,15408.84
2023-03-08T05:29:26.454Z,15390.47
2023-03-08T05:33:27.980Z,15412.94
2023-03-08T05:37:31.006Z,15408.84
2023-03-08T05:41:32.567Z,15429.31
2023-03-08T05:45:34.292Z,15386.38
2023-03-08T05:49:35.978Z,15392.50
2023-03-08T05:53:39.211Z,15412.94
2023-03-08T05:57:40.662Z,15408.84
2023-03-08T06:01:42.161Z,15415.00
2023-03-08T06:05:43.577Z,15400.69
2023-03-08T06:09:46.436Z,15433.41
2023-03-08T06:13:48.149Z,15410.91
2023-03-08T06:17:52.740Z,15417.03
2023-03-08T06:21:54.460Z,15425.22
2023-03-08T06:25:58.218Z,15425.22
2023-03-08T06:29:59.588Z,15425.22
2023-03-08T06:34:00.993Z,15398.63
2023-03-08T06:38:02.648Z,15423.16
2023-03-08T06:42:06.140Z,15396.59
2023-03-08T06:46:11.048Z,15441.56
2023-03-08T06:50:12.827Z,15400.69
2023-03-08T06:54:15.169Z,15415.00
2023-03-08T06:58:17.981Z,15415.00
2023-03-08T07:02:19.377Z,15410.91
2023-03-08T07:06:20.895Z,15449.75
2023-03-08T07:10:23.018Z,15396.59
2023-03-08T07:14:26.910Z,15404.78
2023-03-08T07:18:28.356Z,15429.31
2023-03-08T07:22:30.093Z,15415.00
2023-03-08T07:26:31.664Z,15400.69
2023-03-08T07:30:34.631Z,15402.72
2023-03-08T07:34:36.144Z,15396.59
2023-03-08T07:38:37.827Z,15404.78
2023-03-08T07:42:39.483Z,15380.25
2023-03-08T07:46:42.255Z,15378.19
2023-03-08T07:50:43.727Z,15392.50
2023-03-08T07:54:45.427Z,15392.50
2023-03-08T07:58:47.678Z,15396.59
2023-03-08T08:02:50.787Z,15410.91
2023-03-08T08:06:52.258Z,15412.94
2023-03-08T08:10:53.687Z,15427.25
2023-03-08T08:14:55.180Z,15404.78
2023-03-08T08:18:58.245Z,15404.78
2023-03-08T08:22:59.652Z,15388.41
2023-03-08T08:27:01.360Z,15406.81
2023-03-08T08:31:05.655Z,15427.25
2023-03-08T08:35:09.432Z,15392.50
2023-03-08T08:39:11.112Z,15392.50
2023-03-08T08:43:12.770Z,15357.75
2023-03-08T08:47:14.198Z,15376.16
2023-03-08T08:51:16.991Z,15376.16
2023-03-08T08:55:18.431Z,15384.31
2023-03-08T08:59:19.933Z,15355.72
2023-03-08T09:03:21.386Z,15347.53
2023-03-08T09:07:24.196Z,15388.41
2023-03-08T09:11:27.177Z,15337.31
2023-03-08T09:15:28.864Z,15365.94
2023-03-08T09:19:30.305Z,15376.16
2023-03-08T09:23:33.123Z,15380.25
2023-03-08T09:27:35.271Z,15367.97
2023-03-08T09:31:38.085Z,15390.47
2023-03-08T09:35:39.581Z,15345.47
2023-03-08T09:39:42.427Z,15372.06
2023-03-08T09:43:47.365Z,15367.97
2023-03-08T09:47:54.731Z,15349.56
2023-03-08T09:52:04.238Z,15378.19
2023-03-08T09:56:15.112Z,15349.56
2023-03-08T10:00:21.169Z,15355.72
2023-03-08T10:04:38.700Z,15361.84
2023-03-08T10:08:49.290Z,15357.75
2023-03-08T10:13:15.819Z,15365.94
2023-03-08T10:17:21.476Z,15351.63
2023-03-08T10:21:25.943Z,15370.03
2023-03-08T10:25:29.117Z,15365.94
2023-03-08T10:29:31.989Z,15392.50
2023-03-08T10:33:35.864Z,15380.25
2023-03-08T10:37:37.292Z,15363.88
2023-03-08T10:41:43.448Z,15361.84
2023-03-08T10:45:56.649Z,15333.22
2023-03-08T10:50:13.981Z,15323.00
2023-03-08T10:54:15.585Z,15351.63
2023-03-08T10:58:35.050Z,15347.53
2023-03-08T11:02:38.207Z,15323.00
2023-03-08T11:06:39.708Z,15308.69
2023-03-08T11:10:41.426Z,15331.19
2023-03-08T11:14:42.947Z,15349.56
2023-03-08T11:18:57.338Z,15306.66
2023-03-08T11:23:12.283Z,15347.53
2023-03-08T11:27:26.121Z,15333.22
2023-03-08T11:31:36.213Z,15343.44
2023-03-08T11:35:48.417Z,15314.81
2023-03-08T11:39:54.542Z,15341.41
2023-03-08T11:44:09.345Z,15308.69
2023-03-08T11:48:31.423Z,15314.81
2023-03-08T11:52:44.319Z,15331.19
2023-03-08T11:56:50.514Z,15323.00
2023-03-08T12:00:56.129Z,15302.56
2023-03-08T12:05:06.044Z,15304.59
2023-03-08T12:09:19.585Z,15318.91
2023-03-08T12:13:28.503Z,15302.56
2023-03-08T12:17:35.187Z,15335.25
2023-03-08T12:21:43.502Z,15310.72
2023-03-08T12:25:50.230Z,15286.19
2023-03-08T12:29:55.925Z,15302.56
2023-03-08T12:33:59.257Z,15312.78
2023-03-08T12:38:03.022Z,15280.06
2023-03-08T12:42:16.406Z,15300.50
2023-03-08T12:46:17.917Z,15286.19
2023-03-08T12:50:19.658Z,15282.09
2023-03-08T12:54:23.373Z,15275.97
2023-03-08T12:58:26.780Z,15314.81
2023-03-08T13:02:34.872Z,15288.25
2023-03-08T13:07:20.117Z,15251.44
2023-03-08T13:11:24.206Z,15255.53
2023-03-08T13:15:27.244Z,15269.84
2023-03-08T13:19:30.718Z,15265.75
2023-03-08T13:23:38.039Z,15265.75
2023-03-08T13:27:49.735Z,15290.28
2023-03-08T13:31:55.482Z,15261.66
2023-03-08T13:35:59.256Z,15253.50
2023-03-08T13:40:00.744Z,15296.41
2023-03-08T13:44:03.858Z,15261.66
2023-03-08T13:48:09.034Z,15263.72
2023-03-08T13:52:16.509Z,15302.56
2023-03-08T13:56:24.499Z,15249.41
2023-03-08T14:00:28.922Z,15235.09
2023-03-08T14:04:34.839Z,15253.50
2023-03-08T14:08:36.434Z,15255.53
2023-03-08T14:12:37.919Z,15253.50
2023-03-08T14:16:41.417Z,15247.34
2023-03-08T14:20:44.822Z,15263.72
2023-03-08T14:24:50.870Z,15222.81
2023-03-08T14:29:13.393Z,15239.19
2023-03-08T14:33:23.205Z,15269.84
2023-03-08T14:37:31.102Z,15224.88
2023-03-08T14:41:36.424Z,15239.19
2023-03-08T14:45:50.404Z,15253.50
2023-03-08T14:49:56.584Z,15222.81
2023-03-08T14:54:01.558Z,15220.78
2023-03-08T14:58:08.460Z,15249.41
2023-03-08T15:02:11.756Z,15233.03
2023-03-08T15:06:19.331Z,15249.41
2023-03-08T15:10:26.201Z,15239.19
2023-03-08T15:14:27.724Z,15241.22
2023-03-08T15:18:29.365Z,15235.09
2023-03-08T15:22:31.030Z,15257.56
2023-03-08T15:26:35.363Z,15241.22
2023-03-08T15:30:36.835Z,15249.41
2023-03-08T15:34:38.313Z,15245.31
2023-03-08T15:38:39.801Z,15241.22
2023-03-08T15:42:42.644Z,15249.41
2023-03-08T15:46:44.143Z,15253.50
2023-03-08T15:50:45.852Z,15222.81
2023-03-08T15:54:48.929Z,15257.56
2023-03-08T15:58:52.317Z,15257.56
2023-03-08T16:02:54.003Z,15249.41
2023-03-08T16:06:55.640Z,15231.00
2023-03-08T16:10:57.209Z,15237.13
2023-03-08T16:15:00.092Z,15253.50
2023-03-08T16:19:01.526Z,15261.66
2023-03-08T16:23:04.366Z,15259.63
2023-03-08T16:27:05.873Z,15231.00
2023-03-08T16:31:08.962Z,15233.03
2023-03-08T16:35:10.703Z,15269.84
2023-03-08T16:39:12.156Z,15278.03
2023-03-08T16:43:14.132Z,15241.22
2023-03-08T16:47:17.492Z,15249.41
2023-03-08T16:51:20.128Z,15253.50
2023-03-08T16:55:21.579Z,15226.91
2023-03-08T16:59:23.143Z,15251.44
2023-03-08T17:03:26.156Z,15255.53
2023-03-08T17:07:27.561Z,15261.66
2023-03-08T17:11:30.995Z,15237.13
2023-03-08T17:15:38.728Z,15282.09
2023-03-08T17:19:41.843Z,15231.00
2023-03-08T17:23:43.989Z,15257.56
2023-03-08T17:27:45.432Z,15245.31
2023-03-08T17:31:47.144Z,15237.13
2023-03-08T17:35:52.545Z,15233.03
2023-03-08T17:39:54.079Z,15253.50
2023-03-08T17:43:55.590Z,15243.28
2023-03-08T17:47:56.955Z,15249.41
2023-03-08T17:51:59.737Z,15237.13
2023-03-08T17:56:01.159Z,15247.34
2023-03-08T18:00:04.473Z,15233.03
2023-03-08T18:04:06.082Z,15241.22
2023-03-08T18:08:08.933Z,15233.03
2023-03-08T18:12:10.492Z,15253.50
2023-03-08T18:16:12.268Z,15249.41
2023-03-08T18:20:13.772Z,15241.22
2023-03-08T18:24:16.563Z,15235.09
2023-03-08T18:28:18.101Z,15228.97
2023-03-08T18:32:19.855Z,15216.69
2023-03-08T18:36:21.491Z,15194.22
2023-03-08T18:40:24.445Z,15245.31
2023-03-08T18:44:26.092Z,15222.81
2023-03-08T18:48:27.534Z,15208.50
2023-03-08T18:52:29.397Z,15208.50
2023-03-08T18:56:32.489Z,15208.50
2023-03-08T19:00:34.403Z,15233.03
2023-03-08T19:04:38.286Z,15216.69
2023-03-08T19:08:41.601Z,15233.03
2023-03-08T19:12:44.329Z,15208.50
2023-03-08T19:16:45.917Z,15210.56
2023-03-08T19:20:47.407Z,15198.28
2023-03-08T19:24:49.027Z,15231.00
2023-03-08T19:28:51.975Z,15216.69
2023-03-08T19:32:53.882Z,15167.63
2023-03-08T19:36:55.957Z,15202.38
2023-03-08T19:40:57.611Z,15218.75
2023-03-08T19:45:00.785Z,15204.44
2023-03-08T19:49:05.096Z,15218.75
2023-03-08T19:53:06.733Z,15186.03
2023-03-08T19:57:09.169Z,15177.84
2023-03-08T20:01:14.575Z,15183.97
2023-03-08T20:05:16.297Z,15192.16
2023-03-08T20:09:19.358Z,15149.22
2023-03-08T20:13:20.844Z,15151.28
2023-03-08T20:17:23.717Z,15145.16
2023-03-08T20:21:28.023Z,15149.22
2023-03-08T20:25:29.640Z,15147.19
2023-03-08T20:29:31.116Z,15139.00
2023-03-08T20:33:33.999Z,15128.78
2023-03-08T20:37:36.574Z,15134.91
2023-03-08T20:41:38.041Z,15118.56
2023-03-08T20:45:39.809Z,15134.91
2023-03-08T20:49:44.931Z,15075.63
2023-03-08T20:53:49.702Z,15073.59
2023-03-08T20:57:51.512Z,15034.75
2023-03-08T21:01:54.145Z,15055.19
2023-03-08T21:05:57.133Z,15020.44
2023-03-08T21:09:58.604Z,15016.34
2023-03-08T21:14:00.266Z,15044.97
2023-03-08T21:18:01.793Z,15012.28
2023-03-08T21:22:04.834Z,15030.66
2023-03-08T21:26:06.273Z,15008.19
2023-03-08T21:30:09.283Z,15010.22
2023-03-08T21:34:13.050Z,14991.81
2023-03-08T21:38:16.068Z,15000.00
2023-03-08T21:42:17.741Z,14975.47
2023-03-08T21:46:19.567Z,14993.88
2023-03-08T21:50:21.109Z,14950.94
2023-03-08T21:54:26.125Z,14912.09
2023-03-08T21:58:28.054Z,14879.41
2023-03-08T22:02:29.577Z,14891.66
2023-03-08T22:06:31.545Z,14889.63
2023-03-08T22:10:36.833Z,14899.84
2023-03-08T22:14:38.298Z,14922.31
2023-03-08T22:18:40.244Z,14883.50
2023-03-08T22:22:41.721Z,14897.78
2023-03-08T22:26:44.811Z,14838.50
2023-03-08T22:30:46.242Z,14809.91
2023-03-08T22:34:47.698Z,14799.69
2023-03-08T22:38:49.263Z,14789.47
2023-03-08T22:42:52.103Z,14760.84
2023-03-08T22:46:53.828Z,14787.41
2023-03-08T22:51:09.925Z,14766.97
2023-03-08T22:55:14.024Z,14771.06
2023-03-08T22:59:17.488Z,14762.88
2023-03-08T23:03:19.026Z,14744.50
2023-03-08T23:07:21.594Z,14740.41
2023-03-08T23:11:23.156Z,14742.44
2023-03-08T23:15:26.650Z,14769.03
2023-03-08T23:19:28.328Z,14736.31
2023-03-08T23:23:29.772Z,14711.78
2023-03-08T23:27:33.313Z,14717.91
2023-03-08T23:31:43.411Z,14695.44
2023-03-08T23:35:48.657Z,14695.44
2023-03-08T23:39:50.649Z,14677.03
2023-03-08T23:43:54.263Z,14715.88
2023-03-08T23:47:57.407Z,14699.53
2023-03-08T23:51:59.234Z,14656.59
2023-03-08T23:56:01.694Z,14660.69
